Terminal Aerodrome Forecast
Issued by NWS Jacksonville, FL

Home | Current Version | Previous Version | Text Only | Print | Product List | Glossary On
Versions: 1 2 3 4 5 6 7 8 9 10 11 12 13 14 15 16 17 18 19 20 21 22 23 24 25 26 27 28 29 30 31 32
000
FTUS42 KJAX 031720
TAFJAX
TAF
KJAX 031720Z 0318/0418 33008KT P6SM VCTS FEW025CB SCT100 BKN250
      TEMPO 0320/0324 P6SM TS BKN050CB
     FM040200 VRB04KT P6SM SCT100 BKN250
     FM040600 VRB02KT P6SM OVC250
     FM041400 33005KT P6SM SCT040 BKN250=

USA.gov is the U.S. government's official web portal to all federal, state and local government web resources and services.